This is the latest recevied weather packets stored in our database for station/object N1ADJ. If no packets are shown the sender has not sent any weather packets the latest 10 day(s).
| Time | Temp. | Humidity | Pressure | Rain* | Wind** | Luminosity | Snow |
|---|---|---|---|---|---|---|---|
| 1777701319 | 1.67° C | 85% | 1011.7 hPa | 0 mm | - | - | - |
| 1777700418 | 1.67° C | 84% | 1011.7 hPa | 0 mm | - | - | - |
| 1777699522 | 2.22° C | 84% | 1011.5 hPa | 0 mm | - | - | - |
| 1777698018 | 2.22° C | 84% | 1011.6 hPa | 0 mm | - | - | - |
| 1777694721 | 3.33° C | 80% | 1011.3 hPa | 0 mm | - | - | - |
| 1777694417 | 3.33° C | 79% | 1011.3 hPa | 0 mm | - | - | - |
| 1777687840 | 6.67° C | 69% | 1011.2 hPa | 0 mm | - | - | - |
| 1777686638 | 7.22° C | 67% | 1011 hPa | 0 mm | - | - | - |
| 1777686018 | 7.78° C | 65% | 1011 hPa | 0 mm | - | - | - |
| 1777685157 | 8.89° C | 62% | 1010.9 hPa | 0 mm | - | - | - |
| 1777683918 | 10.56° C | 58% | 1010.9 hPa | 0 mm | - | - | - |
| 1777682717 | 11.67° C | 43% | 1010.5 hPa | 0 mm | - | - | - |
| 1777679718 | 13.33° C | 39% | 1009.5 hPa | 0 mm | - | - | - |
| 1777677918 | 14.44° C | 38% | 1008.8 hPa | 0 mm | - | - | - |
| 1777677620 | 14.44° C | 38% | 1008.8 hPa | 0 mm | - | - | - |
| 1777674917 | 15.56° C | 37% | 1007.9 hPa | 0 mm | - | - | - |
| 1777674320 | 16.11° C | 37% | 1007.7 hPa | 0 mm | - | - | - |
| 1777672217 | 16.67° C | 37% | 1007.4 hPa | 0 mm | - | - | - |
| 1777671617 | 16.67° C | 37% | 1007.3 hPa | 0 mm | - | - | - |
| 1777670117 | 16.67° C | 35% | 1007.1 hPa | 0 mm | - | - | - |
| 1777669817 | 16.67° C | 36% | 1007.1 hPa | 0 mm | - | - | - |
| 1777669217 | 17.22° C | 33% | 1007 hPa | 0 mm | - | - | - |
| 1777668317 | 17.22° C | 37% | 1006.8 hPa | 0 mm | - | - | - |
| 1777667717 | 17.22° C | 37% | 1006.8 hPa | 0 mm | - | - | - |
| 1777667137 | 17.22° C | 38% | 1006.6 hPa | 0 mm | - | - | - |
* Rain latest hour (hover to see other rain measurements)
** Current wind speed in m/s (hover to see current wind gust speed)